sensor_id;sensor_type;location;lat;lon;timestamp;temperature;humidity
37984;DHT22;64625;50.882;4.376;2023-04-03T00:01:16;4.80;99.90
37984;DHT22;64625;50.882;4.376;2023-04-03T00:03:43;4.80;99.90
37984;DHT22;64625;50.882;4.376;2023-04-03T00:06:09;4.80;99.90
37984;DHT22;64625;50.882;4.376;2023-04-03T00:08:36;4.70;99.90
37984;DHT22;64625;50.882;4.376;2023-04-03T00:11:03;4.70;99.90
37984;DHT22;64625;50.882;4.376;2023-04-03T00:13:29;4.70;99.90
37984;DHT22;64625;50.882;4.376;2023-04-03T00:15:55;4.70;99.90
37984;DHT22;64625;50.882;4.376;2023-04-03T00:18:22;4.70;99.90
37984;DHT22;64625;50.882;4.376;2023-04-03T00:20:48;4.70;99.90
37984;DHT22;64625;50.882;4.376;2023-04-03T00:23:14;4.70;99.90
37984;DHT22;64625;50.882;4.376;2023-04-03T00:25:40;4.70;99.90
37984;DHT22;64625;50.882;4.376;2023-04-03T00:28:07;4.70;99.90
37984;DHT22;64625;50.882;4.376;2023-04-03T00:30:33;4.70;99.90
37984;DHT22;64625;50.882;4.376;2023-04-03T00:32:58;4.70;99.90
37984;DHT22;64625;50.882;4.376;2023-04-03T00:35:27;4.70;99.90
37984;DHT22;64625;50.882;4.376;2023-04-03T00:37:54;4.70;99.90
37984;DHT22;64625;50.882;4.376;2023-04-03T00:40:23;4.70;99.90
37984;DHT22;64625;50.882;4.376;2023-04-03T00:42:57;4.70;99.90
37984;DHT22;64625;50.882;4.376;2023-04-03T00:45:39;4.70;99.90
37984;DHT22;64625;50.882;4.376;2023-04-03T00:48:09;4.70;99.90
37984;DHT22;64625;50.882;4.376;2023-04-03T00:50:39;4.60;99.90
37984;DHT22;64625;50.882;4.376;2023-04-03T00:53:09;4.60;99.90
37984;DHT22;64625;50.882;4.376;2023-04-03T00:55:37;4.60;99.90
37984;DHT22;64625;50.882;4.376;2023-04-03T00:58:03;4.60;99.90
37984;DHT22;64625;50.882;4.376;2023-04-03T01:00:32;4.60;99.90
37984;DHT22;64625;50.882;4.376;2023-04-03T01:02:59;4.60;99.90
37984;DHT22;64625;50.882;4.376;2023-04-03T01:05:25;4.60;99.90
37984;DHT22;64625;50.882;4.376;2023-04-03T01:07:51;4.60;99.90
37984;DHT22;64625;50.882;4.376;2023-04-03T01:10:19;4.60;99.90
37984;DHT22;64625;50.882;4.376;2023-04-03T01:12:48;4.60;99.90
37984;DHT22;64625;50.882;4.376;2023-04-03T01:15:25;4.60;99.90
37984;DHT22;64625;50.882;4.376;2023-04-03T01:17:54;4.60;99.90
37984;DHT22;64625;50.882;4.376;2023-04-03T01:25:29;4.50;99.90
37984;DHT22;64625;50.882;4.376;2023-04-03T01:27:55;4.50;99.90
37984;DHT22;64625;50.882;4.376;2023-04-03T01:30:30;4.50;99.90
37984;DHT22;64625;50.882;4.376;2023-04-03T01:32:57;4.50;99.90
37984;DHT22;64625;50.882;4.376;2023-04-03T01:35:23;4.50;99.90
37984;DHT22;64625;50.882;4.376;2023-04-03T01:37:49;4.50;99.90
37984;DHT22;64625;50.882;4.376;2023-04-03T01:40:15;4.50;99.90
37984;DHT22;64625;50.882;4.376;2023-04-03T01:42:41;4.50;99.90
37984;DHT22;64625;50.882;4.376;2023-04-03T01:45:07;4.50;99.90
37984;DHT22;64625;50.882;4.376;2023-04-03T01:47:33;4.50;99.90
37984;DHT22;64625;50.882;4.376;2023-04-03T01:50:04;4.40;99.90
37984;DHT22;64625;50.882;4.376;2023-04-03T01:52:29;4.40;99.90
37984;DHT22;64625;50.882;4.376;2023-04-03T01:54:55;4.40;99.90
37984;DHT22;64625;50.882;4.376;2023-04-03T01:57:21;4.40;99.90
37984;DHT22;64625;50.882;4.376;2023-04-03T01:59:47;4.40;99.90
37984;DHT22;64625;50.882;4.376;2023-04-03T02:02:13;4.40;99.90
37984;DHT22;64625;50.882;4.376;2023-04-03T02:04:40;4.40;99.90
37984;DHT22;64625;50.882;4.376;2023-04-03T02:07:06;4.40;99.90
37984;DHT22;64625;50.882;4.376;2023-04-03T02:09:33;4.40;99.90
37984;DHT22;64625;50.882;4.376;2023-04-03T02:11:59;4.40;99.90
37984;DHT22;64625;50.882;4.376;2023-04-03T02:14:25;4.30;99.90
37984;DHT22;64625;50.882;4.376;2023-04-03T02:16:53;4.30;99.90
37984;DHT22;64625;50.882;4.376;2023-04-03T02:19:25;4.30;99.90
37984;DHT22;64625;50.882;4.376;2023-04-03T02:21:51;4.30;99.90
37984;DHT22;64625;50.882;4.376;2023-04-03T02:24:17;4.30;99.90
37984;DHT22;64625;50.882;4.376;2023-04-03T02:26:43;4.30;99.90
37984;DHT22;64625;50.882;4.376;2023-04-03T02:29:11;4.30;99.90
37984;DHT22;64625;50.882;4.376;2023-04-03T02:31:37;4.30;99.90
37984;DHT22;64625;50.882;4.376;2023-04-03T02:34:03;4.20;99.90
37984;DHT22;64625;50.882;4.376;2023-04-03T02:36:29;4.20;99.90
37984;DHT22;64625;50.882;4.376;2023-04-03T02:38:55;4.20;99.90
37984;DHT22;64625;50.882;4.376;2023-04-03T02:41:20;4.20;99.90
37984;DHT22;64625;50.882;4.376;2023-04-03T02:43:47;4.20;99.90
37984;DHT22;64625;50.882;4.376;2023-04-03T02:46:12;4.10;99.90
37984;DHT22;64625;50.882;4.376;2023-04-03T02:48:40;4.10;99.90
37984;DHT22;64625;50.882;4.376;2023-04-03T02:51:06;4.10;99.90
37984;DHT22;64625;50.882;4.376;2023-04-03T02:53:32;4.10;99.90
37984;DHT22;64625;50.882;4.376;2023-04-03T02:55:58;4.10;99.90
37984;DHT22;64625;50.882;4.376;2023-04-03T02:58:24;4.10;99.90
37984;DHT22;64625;50.882;4.376;2023-04-03T03:00:49;4.10;99.90
37984;DHT22;64625;50.882;4.376;2023-04-03T03:03:18;4.10;99.90
37984;DHT22;64625;50.882;4.376;2023-04-03T03:05:44;4.10;99.90
37984;DHT22;64625;50.882;4.376;2023-04-03T03:08:10;4.10;99.90
37984;DHT22;64625;50.882;4.376;2023-04-03T03:10:36;4.10;99.90
37984;DHT22;64625;50.882;4.376;2023-04-03T03:13:02;4.10;99.90
37984;DHT22;64625;50.882;4.376;2023-04-03T03:15:28;4.10;99.90
37984;DHT22;64625;50.882;4.376;2023-04-03T03:17:53;4.00;99.90
37984;DHT22;64625;50.882;4.376;2023-04-03T03:20:19;4.00;99.90
37984;DHT22;64625;50.882;4.376;2023-04-03T03:22:46;4.00;99.90
37984;DHT22;64625;50.882;4.376;2023-04-03T03:25:12;4.00;99.90
37984;DHT22;64625;50.882;4.376;2023-04-03T03:27:37;4.00;99.90
37984;DHT22;64625;50.882;4.376;2023-04-03T03:30:04;4.00;99.90
37984;DHT22;64625;50.882;4.376;2023-04-03T03:32:30;4.00;99.90
37984;DHT22;64625;50.882;4.376;2023-04-03T03:34:56;3.90;99.90
37984;DHT22;64625;50.882;4.376;2023-04-03T03:37:25;3.90;99.90
37984;DHT22;64625;50.882;4.376;2023-04-03T03:39:50;3.90;99.90
37984;DHT22;64625;50.882;4.376;2023-04-03T03:42:16;3.90;99.90
37984;DHT22;64625;50.882;4.376;2023-04-03T03:44:42;3.90;99.90
37984;DHT22;64625;50.882;4.376;2023-04-03T03:47:08;3.90;99.90
37984;DHT22;64625;50.882;4.376;2023-04-03T03:49:36;3.80;99.90
37984;DHT22;64625;50.882;4.376;2023-04-03T03:52:02;3.80;99.90
37984;DHT22;64625;50.882;4.376;2023-04-03T03:54:28;3.80;99.90
37984;DHT22;64625;50.882;4.376;2023-04-03T03:56:53;3.80;99.90
37984;DHT22;64625;50.882;4.376;2023-04-03T03:59:19;3.80;99.90
37984;DHT22;64625;50.882;4.376;2023-04-03T04:01:46;3.80;99.90
37984;DHT22;64625;50.882;4.376;2023-04-03T04:04:11;3.80;99.90
37984;DHT22;64625;50.882;4.376;2023-04-03T04:06:37;3.70;99.90
37984;DHT22;64625;50.882;4.376;2023-04-03T04:09:03;3.70;99.90
37984;DHT22;64625;50.882;4.376;2023-04-03T04:11:29;3.70;99.90
37984;DHT22;64625;50.882;4.376;2023-04-03T04:13:55;3.70;99.90
37984;DHT22;64625;50.882;4.376;2023-04-03T04:16:20;3.70;99.90
37984;DHT22;64625;50.882;4.376;2023-04-03T04:18:47;3.70;99.90
37984;DHT22;64625;50.882;4.376;2023-04-03T04:21:13;3.70;99.90
37984;DHT22;64625;50.882;4.376;2023-04-03T04:23:39;3.60;99.90
37984;DHT22;64625;50.882;4.376;2023-04-03T04:26:05;3.60;99.90
37984;DHT22;64625;50.882;4.376;2023-04-03T04:28:30;3.60;99.90
37984;DHT22;64625;50.882;4.376;2023-04-03T04:30:56;3.60;99.90
37984;DHT22;64625;50.882;4.376;2023-04-03T04:33:22;3.60;99.90
37984;DHT22;64625;50.882;4.376;2023-04-03T04:35:48;3.50;99.90
37984;DHT22;64625;50.882;4.376;2023-04-03T04:38:14;3.50;99.90
37984;DHT22;64625;50.882;4.376;2023-04-03T04:40:40;3.50;99.90
37984;DHT22;64625;50.882;4.376;2023-04-03T04:43:06;3.50;99.90
37984;DHT22;64625;50.882;4.376;2023-04-03T04:45:32;3.50;99.90
37984;DHT22;64625;50.882;4.376;2023-04-03T04:47:58;3.40;99.90
37984;DHT22;64625;50.882;4.376;2023-04-03T04:50:24;3.40;99.90
37984;DHT22;64625;50.882;4.376;2023-04-03T04:52:50;3.40;99.90
37984;DHT22;64625;50.882;4.376;2023-04-03T04:55:16;3.40;99.90
37984;DHT22;64625;50.882;4.376;2023-04-03T04:57:41;3.30;99.90
37984;DHT22;64625;50.882;4.376;2023-04-03T05:00:08;3.30;99.90
37984;DHT22;64625;50.882;4.376;2023-04-03T05:02:34;3.30;99.90
37984;DHT22;64625;50.882;4.376;2023-04-03T05:04:59;3.30;99.90
37984;DHT22;64625;50.882;4.376;2023-04-03T05:07:26;3.30;99.90
37984;DHT22;64625;50.882;4.376;2023-04-03T05:09:52;3.30;99.90
37984;DHT22;64625;50.882;4.376;2023-04-03T05:12:18;3.30;99.90
37984;DHT22;64625;50.882;4.376;2023-04-03T05:14:45;3.30;99.90
37984;DHT22;64625;50.882;4.376;2023-04-03T05:17:12;3.30;99.90
37984;DHT22;64625;50.882;4.376;2023-04-03T05:19:39;3.20;99.90
37984;DHT22;64625;50.882;4.376;2023-04-03T05:22:05;3.30;99.90
37984;DHT22;64625;50.882;4.376;2023-04-03T05:24:31;3.20;99.90
37984;DHT22;64625;50.882;4.376;2023-04-03T05:26:57;3.20;99.90
37984;DHT22;64625;50.882;4.376;2023-04-03T05:29:23;3.20;99.90
37984;DHT22;64625;50.882;4.376;2023-04-03T05:31:50;3.20;99.90
37984;DHT22;64625;50.882;4.376;2023-04-03T05:34:16;3.20;99.90
37984;DHT22;64625;50.882;4.376;2023-04-03T05:36:45;3.20;99.90
37984;DHT22;64625;50.882;4.376;2023-04-03T05:39:11;3.20;99.90
37984;DHT22;64625;50.882;4.376;2023-04-03T05:41:37;3.20;99.90
37984;DHT22;64625;50.882;4.376;2023-04-03T05:44:05;3.10;99.90
37984;DHT22;64625;50.882;4.376;2023-04-03T05:46:33;3.10;99.90
37984;DHT22;64625;50.882;4.376;2023-04-03T05:49:00;3.10;99.90
37984;DHT22;64625;50.882;4.376;2023-04-03T05:51:29;3.10;99.90
37984;DHT22;64625;50.882;4.376;2023-04-03T05:54:10;3.10;99.90
37984;DHT22;64625;50.882;4.376;2023-04-03T05:56:38;3.10;99.90
37984;DHT22;64625;50.882;4.376;2023-04-03T05:59:04;3.10;99.90
37984;DHT22;64625;50.882;4.376;2023-04-03T06:01:29;3.10;99.90
37984;DHT22;64625;50.882;4.376;2023-04-03T06:03:56;3.10;99.90
37984;DHT22;64625;50.882;4.376;2023-04-03T06:06:24;3.10;99.90
37984;DHT22;64625;50.882;4.376;2023-04-03T06:08:50;3.20;99.90
37984;DHT22;64625;50.882;4.376;2023-04-03T06:11:16;3.20;99.90
37984;DHT22;64625;50.882;4.376;2023-04-03T06:13:48;3.20;99.90
37984;DHT22;64625;50.882;4.376;2023-04-03T06:16:18;3.20;99.90
37984;DHT22;64625;50.882;4.376;2023-04-03T06:18:55;3.30;99.90
37984;DHT22;64625;50.882;4.376;2023-04-03T06:21:21;3.30;99.90
37984;DHT22;64625;50.882;4.376;2023-04-03T06:23:47;3.30;99.90
37984;DHT22;64625;50.882;4.376;2023-04-03T06:26:14;3.40;99.90
37984;DHT22;64625;50.882;4.376;2023-04-03T06:28:40;3.40;99.90
37984;DHT22;64625;50.882;4.376;2023-04-03T06:31:06;3.40;99.90
37984;DHT22;64625;50.882;4.376;2023-04-03T06:33:32;3.50;99.90
37984;DHT22;64625;50.882;4.376;2023-04-03T06:35:58;3.50;99.90
37984;DHT22;64625;50.882;4.376;2023-04-03T06:38:24;3.50;99.90
37984;DHT22;64625;50.882;4.376;2023-04-03T06:40:51;3.50;99.90
37984;DHT22;64625;50.882;4.376;2023-04-03T06:43:19;3.60;99.90
37984;DHT22;64625;50.882;4.376;2023-04-03T06:46:21;3.60;99.90
37984;DHT22;64625;50.882;4.376;2023-04-03T06:48:53;3.70;99.90
37984;DHT22;64625;50.882;4.376;2023-04-03T06:51:29;3.70;99.90
37984;DHT22;64625;50.882;4.376;2023-04-03T06:53:59;3.80;99.90
37984;DHT22;64625;50.882;4.376;2023-04-03T06:56:27;3.80;99.90
37984;DHT22;64625;50.882;4.376;2023-04-03T06:58:54;3.90;99.90
37984;DHT22;64625;50.882;4.376;2023-04-03T07:01:25;3.90;99.90
37984;DHT22;64625;50.882;4.376;2023-04-03T07:03:52;4.00;99.90
37984;DHT22;64625;50.882;4.376;2023-04-03T07:06:19;4.10;99.90
37984;DHT22;64625;50.882;4.376;2023-04-03T07:08:46;4.10;99.90
37984;DHT22;64625;50.882;4.376;2023-04-03T07:11:13;4.20;99.90
37984;DHT22;64625;50.882;4.376;2023-04-03T07:13:41;4.30;99.90
37984;DHT22;64625;50.882;4.376;2023-04-03T07:16:08;4.40;99.90
37984;DHT22;64625;50.882;4.376;2023-04-03T07:18:34;4.40;99.90
37984;DHT22;64625;50.882;4.376;2023-04-03T07:21:00;4.50;99.90
37984;DHT22;64625;50.882;4.376;2023-04-03T07:23:27;4.50;99.90
37984;DHT22;64625;50.882;4.376;2023-04-03T07:25:53;4.60;99.90
37984;DHT22;64625;50.882;4.376;2023-04-03T07:28:20;4.70;99.90
37984;DHT22;64625;50.882;4.376;2023-04-03T07:30:53;4.70;99.90
37984;DHT22;64625;50.882;4.376;2023-04-03T07:33:19;4.80;99.90
37984;DHT22;64625;50.882;4.376;2023-04-03T07:35:46;4.90;99.90
37984;DHT22;64625;50.882;4.376;2023-04-03T07:38:12;5.00;99.90
37984;DHT22;64625;50.882;4.376;2023-04-03T07:40:50;5.00;99.90
37984;DHT22;64625;50.882;4.376;2023-04-03T07:43:20;5.10;99.90
37984;DHT22;64625;50.882;4.376;2023-04-03T07:45:47;5.20;99.90
37984;DHT22;64625;50.882;4.376;2023-04-03T07:48:16;5.20;99.90
37984;DHT22;64625;50.882;4.376;2023-04-03T07:50:43;5.30;99.90
37984;DHT22;64625;50.882;4.376;2023-04-03T07:53:09;5.40;99.90
37984;DHT22;64625;50.882;4.376;2023-04-03T07:55:35;5.40;99.90
37984;DHT22;64625;50.882;4.376;2023-04-03T07:58:11;5.50;99.90
37984;DHT22;64625;50.882;4.376;2023-04-03T08:00:38;5.60;99.90
37984;DHT22;64625;50.882;4.376;2023-04-03T08:03:05;5.70;99.90
37984;DHT22;64625;50.882;4.376;2023-04-03T08:05:31;5.70;99.90
37984;DHT22;64625;50.882;4.376;2023-04-03T08:07:57;5.80;99.90
37984;DHT22;64625;50.882;4.376;2023-04-03T08:10:23;5.90;99.90
37984;DHT22;64625;50.882;4.376;2023-04-03T08:12:49;5.90;99.90
37984;DHT22;64625;50.882;4.376;2023-04-03T08:15:15;6.00;99.90
37984;DHT22;64625;50.882;4.376;2023-04-03T08:17:41;6.10;99.90
37984;DHT22;64625;50.882;4.376;2023-04-03T08:20:09;6.10;99.90
37984;DHT22;64625;50.882;4.376;2023-04-03T08:22:35;6.20;99.90
37984;DHT22;64625;50.882;4.376;2023-04-03T08:25:01;6.30;99.90
37984;DHT22;64625;50.882;4.376;2023-04-03T08:27:27;6.30;99.90
37984;DHT22;64625;50.882;4.376;2023-04-03T08:29:55;6.40;99.90
37984;DHT22;64625;50.882;4.376;2023-04-03T08:32:21;6.50;99.90
37984;DHT22;64625;50.882;4.376;2023-04-03T08:34:47;6.50;99.90
37984;DHT22;64625;50.882;4.376;2023-04-03T08:37:13;6.60;99.90
37984;DHT22;64625;50.882;4.376;2023-04-03T08:39:42;6.70;99.90
37984;DHT22;64625;50.882;4.376;2023-04-03T08:45:14;6.80;99.90
37984;DHT22;64625;50.882;4.376;2023-04-03T08:48:20;6.90;99.90
37984;DHT22;64625;50.882;4.376;2023-04-03T08:50:50;6.90;99.90
37984;DHT22;64625;50.882;4.376;2023-04-03T08:53:29;7.00;99.90
37984;DHT22;64625;50.882;4.376;2023-04-03T08:55:58;7.10;99.90
37984;DHT22;64625;50.882;4.376;2023-04-03T08:58:30;7.10;99.90
37984;DHT22;64625;50.882;4.376;2023-04-03T09:00:59;7.30;99.90
37984;DHT22;64625;50.882;4.376;2023-04-03T09:03:30;7.30;99.90
37984;DHT22;64625;50.882;4.376;2023-04-03T09:08:45;7.40;99.90
37984;DHT22;64625;50.882;4.376;2023-04-03T09:15:28;7.50;99.90
37984;DHT22;64625;50.882;4.376;2023-04-03T09:18:06;7.60;99.90
37984;DHT22;64625;50.882;4.376;2023-04-03T09:23:15;7.80;99.90
37984;DHT22;64625;50.882;4.376;2023-04-03T09:25:43;7.80;99.90
37984;DHT22;64625;50.882;4.376;2023-04-03T09:28:10;7.90;99.90
37984;DHT22;64625;50.882;4.376;2023-04-03T09:30:36;8.00;99.90
37984;DHT22;64625;50.882;4.376;2023-04-03T09:33:04;8.00;99.90
37984;DHT22;64625;50.882;4.376;2023-04-03T09:35:33;8.10;99.90
37984;DHT22;64625;50.882;4.376;2023-04-03T09:45:46;8.40;99.90
37984;DHT22;64625;50.882;4.376;2023-04-03T09:55:55;8.70;99.90
37984;DHT22;64625;50.882;4.376;2023-04-03T09:58:39;8.70;99.90
37984;DHT22;64625;50.882;4.376;2023-04-03T10:01:31;8.80;99.90
37984;DHT22;64625;50.882;4.376;2023-04-03T10:04:10;8.80;99.90
37984;DHT22;64625;50.882;4.376;2023-04-03T10:06:42;8.90;99.90
37984;DHT22;64625;50.882;4.376;2023-04-03T10:09:33;8.90;99.90
37984;DHT22;64625;50.882;4.376;2023-04-03T10:12:09;9.00;99.90
37984;DHT22;64625;50.882;4.376;2023-04-03T10:15:01;9.00;99.90
37984;DHT22;64625;50.882;4.376;2023-04-03T10:17:35;9.10;99.90
37984;DHT22;64625;50.882;4.376;2023-04-03T10:20:27;9.10;99.90
37984;DHT22;64625;50.882;4.376;2023-04-03T10:23:17;9.20;99.90
37984;DHT22;64625;50.882;4.376;2023-04-03T10:25:59;9.20;99.90
37984;DHT22;64625;50.882;4.376;2023-04-03T10:28:34;9.30;99.90
37984;DHT22;64625;50.882;4.376;2023-04-03T10:39:27;9.50;99.90
37984;DHT22;64625;50.882;4.376;2023-04-03T10:42:02;9.60;99.90
37984;DHT22;64625;50.882;4.376;2023-04-03T10:58:32;9.90;99.90
37984;DHT22;64625;50.882;4.376;2023-04-03T11:01:06;9.90;99.90
37984;DHT22;64625;50.882;4.376;2023-04-03T11:03:42;10.00;99.90
37984;DHT22;64625;50.882;4.376;2023-04-03T11:06:14;10.10;99.90
37984;DHT22;64625;50.882;4.376;2023-04-03T11:09:02;10.10;99.90
37984;DHT22;64625;50.882;4.376;2023-04-03T11:11:37;10.10;99.90
37984;DHT22;64625;50.882;4.376;2023-04-03T11:14:15;10.20;99.90
37984;DHT22;64625;50.882;4.376;2023-04-03T11:16:47;10.20;99.90
37984;DHT22;64625;50.882;4.376;2023-04-03T11:22:32;10.30;99.90
37984;DHT22;64625;50.882;4.376;2023-04-03T11:27:54;10.40;99.90
37984;DHT22;64625;50.882;4.376;2023-04-03T11:33:21;10.50;99.90
37984;DHT22;64625;50.882;4.376;2023-04-03T11:36:00;10.60;99.90
37984;DHT22;64625;50.882;4.376;2023-04-03T11:38:31;10.60;99.90
37984;DHT22;64625;50.882;4.376;2023-04-03T11:41:02;10.70;99.90
37984;DHT22;64625;50.882;4.376;2023-04-03T11:43:32;10.70;99.90
37984;DHT22;64625;50.882;4.376;2023-04-03T11:46:09;10.70;99.90
37984;DHT22;64625;50.882;4.376;2023-04-03T11:53:40;10.80;99.90
37984;DHT22;64625;50.882;4.376;2023-04-03T11:59:14;10.90;99.90
37984;DHT22;64625;50.882;4.376;2023-04-03T12:01:57;11.00;99.90
37984;DHT22;64625;50.882;4.376;2023-04-03T12:04:27;11.00;99.90
37984;DHT22;64625;50.882;4.376;2023-04-03T12:07:16;11.10;99.90
37984;DHT22;64625;50.882;4.376;2023-04-03T12:12:29;11.10;99.90
37984;DHT22;64625;50.882;4.376;2023-04-03T12:15:11;11.10;99.90
37984;DHT22;64625;50.882;4.376;2023-04-03T12:17:38;11.20;99.90
37984;DHT22;64625;50.882;4.376;2023-04-03T12:25:51;11.30;99.90
37984;DHT22;64625;50.882;4.376;2023-04-03T12:28:17;11.30;99.90
37984;DHT22;64625;50.882;4.376;2023-04-03T12:30:43;11.40;99.90
37984;DHT22;64625;50.882;4.376;2023-04-03T12:33:17;11.40;99.90
37984;DHT22;64625;50.882;4.376;2023-04-03T12:36:03;11.50;99.90
37984;DHT22;64625;50.882;4.376;2023-04-03T12:46:53;11.60;99.90
37984;DHT22;64625;50.882;4.376;2023-04-03T12:49:37;11.60;99.90
37984;DHT22;64625;50.882;4.376;2023-04-03T12:54:47;11.70;99.90
37984;DHT22;64625;50.882;4.376;2023-04-03T12:57:20;11.70;99.90
37984;DHT22;64625;50.882;4.376;2023-04-03T12:59:47;11.80;99.90
37984;DHT22;64625;50.882;4.376;2023-04-03T13:02:28;11.80;99.40
37984;DHT22;64625;50.882;4.376;2023-04-03T13:05:09;11.90;99.10
37984;DHT22;64625;50.882;4.376;2023-04-03T13:07:37;12.00;99.00
37984;DHT22;64625;50.882;4.376;2023-04-03T13:12:46;12.10;97.40
37984;DHT22;64625;50.882;4.376;2023-04-03T13:15:50;12.20;97.20
37984;DHT22;64625;50.882;4.376;2023-04-03T13:18:34;12.30;93.90
37984;DHT22;64625;50.882;4.376;2023-04-03T13:21:05;12.30;95.60
37984;DHT22;64625;50.882;4.376;2023-04-03T13:23:32;12.30;95.10
37984;DHT22;64625;50.882;4.376;2023-04-03T13:26:00;12.30;94.20
37984;DHT22;64625;50.882;4.376;2023-04-03T13:28:31;12.40;94.40
37984;DHT22;64625;50.882;4.376;2023-04-03T13:33:29;12.50;92.60
37984;DHT22;64625;50.882;4.376;2023-04-03T13:36:36;12.50;92.40
37984;DHT22;64625;50.882;4.376;2023-04-03T13:39:28;12.60;88.30
37984;DHT22;64625;50.882;4.376;2023-04-03T13:41:56;12.70;91.90
37984;DHT22;64625;50.882;4.376;2023-04-03T13:44:31;12.80;91.90
37984;DHT22;64625;50.882;4.376;2023-04-03T13:47:19;12.80;90.90
37984;DHT22;64625;50.882;4.376;2023-04-03T13:50:03;12.80;90.60
37984;DHT22;64625;50.882;4.376;2023-04-03T13:52:39;12.90;87.50
37984;DHT22;64625;50.882;4.376;2023-04-03T13:55:30;12.90;88.60
37984;DHT22;64625;50.882;4.376;2023-04-03T14:00:53;13.10;90.00
37984;DHT22;64625;50.882;4.376;2023-04-03T14:03:45;13.10;89.80
37984;DHT22;64625;50.882;4.376;2023-04-03T14:06:16;13.20;85.70
37984;DHT22;64625;50.882;4.376;2023-04-03T14:08:43;13.30;87.80
37984;DHT22;64625;50.882;4.376;2023-04-03T14:11:24;13.30;89.60
37984;DHT22;64625;50.882;4.376;2023-04-03T14:13:53;13.40;89.30
37984;DHT22;64625;50.882;4.376;2023-04-03T14:16:45;13.60;89.90
37984;DHT22;64625;50.882;4.376;2023-04-03T14:19:29;13.70;86.60
37984;DHT22;64625;50.882;4.376;2023-04-03T14:21:59;13.70;85.20
37984;DHT22;64625;50.882;4.376;2023-04-03T14:24:25;13.90;87.60
37984;DHT22;64625;50.882;4.376;2023-04-03T14:26:54;14.00;88.30
37984;DHT22;64625;50.882;4.376;2023-04-03T14:29:21;14.10;86.40
37984;DHT22;64625;50.882;4.376;2023-04-03T14:31:48;14.20;86.60
37984;DHT22;64625;50.882;4.376;2023-04-03T14:34:15;14.20;85.10
37984;DHT22;64625;50.882;4.376;2023-04-03T14:36:43;14.30;83.10
37984;DHT22;64625;50.882;4.376;2023-04-03T14:39:17;14.40;85.60
37984;DHT22;64625;50.882;4.376;2023-04-03T14:41:44;14.60;82.40
37984;DHT22;64625;50.882;4.376;2023-04-03T14:44:10;14.70;82.00
37984;DHT22;64625;50.882;4.376;2023-04-03T14:46:39;14.80;82.50
37984;DHT22;64625;50.882;4.376;2023-04-03T14:49:19;15.00;81.90
37984;DHT22;64625;50.882;4.376;2023-04-03T14:51:46;15.20;80.50
37984;DHT22;64625;50.882;4.376;2023-04-03T14:54:18;15.30;81.90
37984;DHT22;64625;50.882;4.376;2023-04-03T14:56:47;15.50;80.60
37984;DHT22;64625;50.882;4.376;2023-04-03T14:59:14;15.50;79.00
37984;DHT22;64625;50.882;4.376;2023-04-03T15:01:41;15.60;78.60
37984;DHT22;64625;50.882;4.376;2023-04-03T15:04:20;15.60;77.00
37984;DHT22;64625;50.882;4.376;2023-04-03T15:06:47;15.60;75.90
37984;DHT22;64625;50.882;4.376;2023-04-03T15:09:22;15.60;75.40
37984;DHT22;64625;50.882;4.376;2023-04-03T15:11:50;15.50;74.80
37984;DHT22;64625;50.882;4.376;2023-04-03T15:14:16;15.50;75.70
37984;DHT22;64625;50.882;4.376;2023-04-03T15:16:42;15.60;76.00
37984;DHT22;64625;50.882;4.376;2023-04-03T15:19:08;15.50;74.80
37984;DHT22;64625;50.882;4.376;2023-04-03T15:21:34;15.40;72.90
37984;DHT22;64625;50.882;4.376;2023-04-03T15:24:00;15.30;72.10
37984;DHT22;64625;50.882;4.376;2023-04-03T15:26:26;15.30;72.50
37984;DHT22;64625;50.882;4.376;2023-04-03T15:28:52;15.20;71.60
37984;DHT22;64625;50.882;4.376;2023-04-03T15:31:18;15.10;70.60
37984;DHT22;64625;50.882;4.376;2023-04-03T15:33:44;15.00;70.20
37984;DHT22;64625;50.882;4.376;2023-04-03T15:36:10;14.90;70.40
37984;DHT22;64625;50.882;4.376;2023-04-03T15:38:36;14.90;71.60
37984;DHT22;64625;50.882;4.376;2023-04-03T15:41:04;15.00;71.10
37984;DHT22;64625;50.882;4.376;2023-04-03T15:43:30;15.00;70.70
37984;DHT22;64625;50.882;4.376;2023-04-03T15:45:57;15.00;70.50
37984;DHT22;64625;50.882;4.376;2023-04-03T15:48:25;15.10;70.70
37984;DHT22;64625;50.882;4.376;2023-04-03T15:50:51;15.10;69.20
37984;DHT22;64625;50.882;4.376;2023-04-03T15:53:17;15.10;69.50
37984;DHT22;64625;50.882;4.376;2023-04-03T15:55:43;15.10;68.80
37984;DHT22;64625;50.882;4.376;2023-04-03T15:58:09;15.00;68.60
37984;DHT22;64625;50.882;4.376;2023-04-03T16:00:36;15.00;69.00
37984;DHT22;64625;50.882;4.376;2023-04-03T16:03:15;15.00;67.90
37984;DHT22;64625;50.882;4.376;2023-04-03T16:05:41;15.00;67.80
37984;DHT22;64625;50.882;4.376;2023-04-03T16:08:08;14.90;68.30
37984;DHT22;64625;50.882;4.376;2023-04-03T16:10:35;14.90;67.80
37984;DHT22;64625;50.882;4.376;2023-04-03T16:13:02;14.80;67.40
37984;DHT22;64625;50.882;4.376;2023-04-03T16:15:29;14.80;67.40
37984;DHT22;64625;50.882;4.376;2023-04-03T16:17:56;14.80;67.70
37984;DHT22;64625;50.882;4.376;2023-04-03T16:20:24;14.70;67.60
37984;DHT22;64625;50.882;4.376;2023-04-03T16:22:51;14.70;67.80
37984;DHT22;64625;50.882;4.376;2023-04-03T16:25:17;14.70;68.50
37984;DHT22;64625;50.882;4.376;2023-04-03T16:27:43;14.60;67.80
37984;DHT22;64625;50.882;4.376;2023-04-03T16:30:10;14.60;68.20
37984;DHT22;64625;50.882;4.376;2023-04-03T16:32:37;14.50;67.00
37984;DHT22;64625;50.882;4.376;2023-04-03T16:35:05;14.40;67.70
37984;DHT22;64625;50.882;4.376;2023-04-03T16:37:31;14.30;68.20
37984;DHT22;64625;50.882;4.376;2023-04-03T16:39:57;14.30;68.20
37984;DHT22;64625;50.882;4.376;2023-04-03T16:42:24;14.20;66.60
37984;DHT22;64625;50.882;4.376;2023-04-03T16:44:51;14.10;66.80
37984;DHT22;64625;50.882;4.376;2023-04-03T16:47:17;13.90;67.40
37984;DHT22;64625;50.882;4.376;2023-04-03T16:49:45;13.80;66.30
37984;DHT22;64625;50.882;4.376;2023-04-03T16:52:11;13.70;67.20
37984;DHT22;64625;50.882;4.376;2023-04-03T16:54:37;13.60;67.90
37984;DHT22;64625;50.882;4.376;2023-04-03T16:57:03;13.40;68.40
37984;DHT22;64625;50.882;4.376;2023-04-03T16:59:29;13.30;68.50
37984;DHT22;64625;50.882;4.376;2023-04-03T17:01:55;13.20;69.20
37984;DHT22;64625;50.882;4.376;2023-04-03T17:04:20;13.10;69.30
37984;DHT22;64625;50.882;4.376;2023-04-03T17:06:47;13.00;69.70
37984;DHT22;64625;50.882;4.376;2023-04-03T17:09:13;12.90;70.40
37984;DHT22;64625;50.882;4.376;2023-04-03T17:11:39;12.80;69.20
37984;DHT22;64625;50.882;4.376;2023-04-03T17:14:05;12.60;68.90
37984;DHT22;64625;50.882;4.376;2023-04-03T17:16:33;12.50;69.70
37984;DHT22;64625;50.882;4.376;2023-04-03T17:19:00;12.40;70.10
37984;DHT22;64625;50.882;4.376;2023-04-03T17:21:26;12.30;70.00
37984;DHT22;64625;50.882;4.376;2023-04-03T17:23:57;12.20;69.20
37984;DHT22;64625;50.882;4.376;2023-04-03T17:26:25;12.10;70.20
37984;DHT22;64625;50.882;4.376;2023-04-03T17:28:52;12.00;70.60
37984;DHT22;64625;50.882;4.376;2023-04-03T17:31:18;11.90;71.50
37984;DHT22;64625;50.882;4.376;2023-04-03T17:33:43;11.80;71.40